sensor_id;sensor_type;location;lat;lon;timestamp;P1;durP1;ratioP1;P2;durP2;ratioP2
33954;SDS011;20233;50.804;7.126;2022-11-20T00:01:09;23.55;;;12.15;;
33954;SDS011;20233;50.804;7.126;2022-11-20T00:03:36;23.05;;;12.77;;
33954;SDS011;20233;50.804;7.126;2022-11-20T00:06:06;21.02;;;13.25;;
33954;SDS011;20233;50.804;7.126;2022-11-20T00:08:33;22.80;;;13.40;;
33954;SDS011;20233;50.804;7.126;2022-11-20T00:11:05;23.10;;;13.38;;
33954;SDS011;20233;50.804;7.126;2022-11-20T00:13:35;21.80;;;12.43;;
33954;SDS011;20233;50.804;7.126;2022-11-20T00:16:02;20.80;;;12.15;;
33954;SDS011;20233;50.804;7.126;2022-11-20T00:18:29;21.70;;;12.25;;
33954;SDS011;20233;50.804;7.126;2022-11-20T00:21:00;24.05;;;13.05;;
33954;SDS011;20233;50.804;7.126;2022-11-20T00:23:29;20.35;;;11.38;;
33954;SDS011;20233;50.804;7.126;2022-11-20T00:25:55;23.38;;;12.15;;
33954;SDS011;20233;50.804;7.126;2022-11-20T00:28:21;22.55;;;12.48;;
33954;SDS011;20233;50.804;7.126;2022-11-20T00:30:46;21.33;;;11.40;;
33954;SDS011;20233;50.804;7.126;2022-11-20T00:33:12;22.55;;;12.80;;
33954;SDS011;20233;50.804;7.126;2022-11-20T00:35:38;18.75;;;11.52;;
33954;SDS011;20233;50.804;7.126;2022-11-20T00:38:03;20.83;;;11.93;;
33954;SDS011;20233;50.804;7.126;2022-11-20T00:40:29;22.45;;;11.65;;
33954;SDS011;20233;50.804;7.126;2022-11-20T00:42:54;22.17;;;12.57;;
33954;SDS011;20233;50.804;7.126;2022-11-20T00:45:20;20.60;;;12.38;;
33954;SDS011;20233;50.804;7.126;2022-11-20T00:47:45;21.30;;;12.07;;
33954;SDS011;20233;50.804;7.126;2022-11-20T00:50:11;21.88;;;12.07;;
33954;SDS011;20233;50.804;7.126;2022-11-20T00:52:37;22.17;;;13.13;;
33954;SDS011;20233;50.804;7.126;2022-11-20T00:55:02;20.33;;;12.05;;
33954;SDS011;20233;50.804;7.126;2022-11-20T00:57:29;22.33;;;11.60;;
33954;SDS011;20233;50.804;7.126;2022-11-20T00:59:54;22.58;;;12.63;;
33954;SDS011;20233;50.804;7.126;2022-11-20T01:02:20;20.83;;;11.80;;
33954;SDS011;20233;50.804;7.126;2022-11-20T01:04:46;22.55;;;12.20;;
33954;SDS011;20233;50.804;7.126;2022-11-20T01:07:11;20.88;;;11.75;;
33954;SDS011;20233;50.804;7.126;2022-11-20T01:09:37;21.08;;;12.30;;
33954;SDS011;20233;50.804;7.126;2022-11-20T01:12:03;19.38;;;11.68;;
33954;SDS011;20233;50.804;7.126;2022-11-20T01:14:28;20.80;;;11.18;;
33954;SDS011;20233;50.804;7.126;2022-11-20T01:16:54;21.10;;;11.50;;
33954;SDS011;20233;50.804;7.126;2022-11-20T01:19:20;20.27;;;12.07;;
33954;SDS011;20233;50.804;7.126;2022-11-20T01:21:49;21.00;;;12.60;;
33954;SDS011;20233;50.804;7.126;2022-11-20T01:24:16;23.25;;;13.00;;
33954;SDS011;20233;50.804;7.126;2022-11-20T01:26:43;21.67;;;12.50;;
33954;SDS011;20233;50.804;7.126;2022-11-20T01:29:12;20.27;;;11.82;;
33954;SDS011;20233;50.804;7.126;2022-11-20T01:31:40;20.08;;;11.52;;
33954;SDS011;20233;50.804;7.126;2022-11-20T01:34:09;21.55;;;11.95;;
33954;SDS011;20233;50.804;7.126;2022-11-20T01:36:37;25.48;;;12.95;;
33954;SDS011;20233;50.804;7.126;2022-11-20T01:39:09;21.05;;;12.93;;
33954;SDS011;20233;50.804;7.126;2022-11-20T01:41:39;21.05;;;12.15;;
33954;SDS011;20233;50.804;7.126;2022-11-20T01:47:28;19.02;;;11.25;;
33954;SDS011;20233;50.804;7.126;2022-11-20T01:52:35;18.88;;;10.68;;
33954;SDS011;20233;50.804;7.126;2022-11-20T01:55:09;21.40;;;11.98;;
33954;SDS011;20233;50.804;7.126;2022-11-20T01:57:38;20.90;;;11.98;;
33954;SDS011;20233;50.804;7.126;2022-11-20T02:00:14;20.40;;;11.77;;
33954;SDS011;20233;50.804;7.126;2022-11-20T02:02:42;20.00;;;11.65;;
33954;SDS011;20233;50.804;7.126;2022-11-20T02:05:37;19.63;;;11.05;;
33954;SDS011;20233;50.804;7.126;2022-11-20T02:08:03;20.85;;;12.23;;
33954;SDS011;20233;50.804;7.126;2022-11-20T02:10:30;23.13;;;12.18;;
33954;SDS011;20233;50.804;7.126;2022-11-20T02:12:56;20.10;;;12.05;;
33954;SDS011;20233;50.804;7.126;2022-11-20T02:15:41;21.85;;;12.07;;
33954;SDS011;20233;50.804;7.126;2022-11-20T02:18:08;21.40;;;12.20;;
33954;SDS011;20233;50.804;7.126;2022-11-20T02:20:36;19.77;;;11.93;;
33954;SDS011;20233;50.804;7.126;2022-11-20T02:25:36;22.70;;;12.77;;
33954;SDS011;20233;50.804;7.126;2022-11-20T02:28:02;22.70;;;12.60;;
33954;SDS011;20233;50.804;7.126;2022-11-20T02:30:29;22.38;;;11.88;;
33954;SDS011;20233;50.804;7.126;2022-11-20T02:32:55;20.70;;;12.00;;
33954;SDS011;20233;50.804;7.126;2022-11-20T02:37:50;20.48;;;12.95;;
33954;SDS011;20233;50.804;7.126;2022-11-20T02:40:18;21.35;;;12.13;;
33954;SDS011;20233;50.804;7.126;2022-11-20T02:42:44;22.95;;;12.57;;
33954;SDS011;20233;50.804;7.126;2022-11-20T02:45:10;21.45;;;12.52;;
33954;SDS011;20233;50.804;7.126;2022-11-20T02:47:36;22.02;;;11.98;;
33954;SDS011;20233;50.804;7.126;2022-11-20T02:50:01;20.88;;;12.27;;
33954;SDS011;20233;50.804;7.126;2022-11-20T02:52:28;20.27;;;11.63;;
33954;SDS011;20233;50.804;7.126;2022-11-20T02:54:53;20.02;;;12.38;;
33954;SDS011;20233;50.804;7.126;2022-11-20T02:57:19;22.08;;;12.27;;
33954;SDS011;20233;50.804;7.126;2022-11-20T02:59:45;22.10;;;12.00;;
33954;SDS011;20233;50.804;7.126;2022-11-20T03:02:10;21.75;;;12.27;;
33954;SDS011;20233;50.804;7.126;2022-11-20T03:04:36;22.25;;;12.18;;
33954;SDS011;20233;50.804;7.126;2022-11-20T03:07:01;22.05;;;12.30;;
33954;SDS011;20233;50.804;7.126;2022-11-20T03:09:27;19.83;;;11.73;;
33954;SDS011;20233;50.804;7.126;2022-11-20T03:11:52;20.75;;;11.77;;
33954;SDS011;20233;50.804;7.126;2022-11-20T03:14:18;22.70;;;12.02;;
33954;SDS011;20233;50.804;7.126;2022-11-20T03:16:43;19.65;;;11.85;;
33954;SDS011;20233;50.804;7.126;2022-11-20T03:19:09;22.13;;;12.52;;
33954;SDS011;20233;50.804;7.126;2022-11-20T03:21:36;21.08;;;11.82;;
33954;SDS011;20233;50.804;7.126;2022-11-20T03:24:02;22.15;;;11.80;;
33954;SDS011;20233;50.804;7.126;2022-11-20T03:26:28;21.13;;;11.77;;
33954;SDS011;20233;50.804;7.126;2022-11-20T03:28:54;20.70;;;12.30;;
33954;SDS011;20233;50.804;7.126;2022-11-20T03:31:25;22.48;;;13.32;;
33954;SDS011;20233;50.804;7.126;2022-11-20T03:33:56;21.98;;;12.90;;
33954;SDS011;20233;50.804;7.126;2022-11-20T03:36:22;20.67;;;11.88;;
33954;SDS011;20233;50.804;7.126;2022-11-20T03:38:48;23.17;;;12.68;;
33954;SDS011;20233;50.804;7.126;2022-11-20T03:41:24;20.50;;;11.57;;
33954;SDS011;20233;50.804;7.126;2022-11-20T03:43:55;20.90;;;12.45;;
33954;SDS011;20233;50.804;7.126;2022-11-20T03:46:22;21.75;;;12.75;;
33954;SDS011;20233;50.804;7.126;2022-11-20T03:48:48;22.05;;;12.90;;
33954;SDS011;20233;50.804;7.126;2022-11-20T03:51:15;23.98;;;12.82;;
33954;SDS011;20233;50.804;7.126;2022-11-20T03:53:44;22.27;;;12.35;;
33954;SDS011;20233;50.804;7.126;2022-11-20T03:56:11;19.08;;;11.38;;
33954;SDS011;20233;50.804;7.126;2022-11-20T03:58:39;21.55;;;11.65;;
33954;SDS011;20233;50.804;7.126;2022-11-20T04:01:15;21.92;;;12.38;;
33954;SDS011;20233;50.804;7.126;2022-11-20T04:03:43;24.20;;;12.98;;
33954;SDS011;20233;50.804;7.126;2022-11-20T04:06:14;25.65;;;14.48;;
33954;SDS011;20233;50.804;7.126;2022-11-20T04:08:41;26.00;;;13.90;;
33954;SDS011;20233;50.804;7.126;2022-11-20T04:11:17;27.23;;;14.82;;
33954;SDS011;20233;50.804;7.126;2022-11-20T04:13:55;25.73;;;14.07;;
33954;SDS011;20233;50.804;7.126;2022-11-20T04:16:25;25.03;;;13.83;;
33954;SDS011;20233;50.804;7.126;2022-11-20T04:18:54;24.73;;;13.70;;
33954;SDS011;20233;50.804;7.126;2022-11-20T04:21:21;25.67;;;14.15;;
33954;SDS011;20233;50.804;7.126;2022-11-20T04:23:47;26.92;;;14.73;;
33954;SDS011;20233;50.804;7.126;2022-11-20T04:26:14;24.05;;;12.98;;
33954;SDS011;20233;50.804;7.126;2022-11-20T04:28:40;27.90;;;14.90;;
33954;SDS011;20233;50.804;7.126;2022-11-20T04:31:10;24.63;;;13.23;;
33954;SDS011;20233;50.804;7.126;2022-11-20T04:33:37;27.25;;;14.88;;
33954;SDS011;20233;50.804;7.126;2022-11-20T04:36:04;25.38;;;13.63;;
33954;SDS011;20233;50.804;7.126;2022-11-20T04:38:30;29.48;;;15.35;;
33954;SDS011;20233;50.804;7.126;2022-11-20T04:41:00;25.67;;;13.68;;
33954;SDS011;20233;50.804;7.126;2022-11-20T04:43:27;28.17;;;15.18;;
33954;SDS011;20233;50.804;7.126;2022-11-20T04:45:53;26.75;;;14.40;;
33954;SDS011;20233;50.804;7.126;2022-11-20T04:48:20;26.48;;;14.25;;
33954;SDS011;20233;50.804;7.126;2022-11-20T04:50:45;28.90;;;15.02;;
33954;SDS011;20233;50.804;7.126;2022-11-20T04:53:11;27.20;;;14.38;;
33954;SDS011;20233;50.804;7.126;2022-11-20T04:55:37;25.45;;;14.13;;
33954;SDS011;20233;50.804;7.126;2022-11-20T04:58:02;28.17;;;14.40;;
33954;SDS011;20233;50.804;7.126;2022-11-20T05:00:28;25.83;;;14.15;;
33954;SDS011;20233;50.804;7.126;2022-11-20T05:02:53;26.05;;;14.25;;
33954;SDS011;20233;50.804;7.126;2022-11-20T05:05:19;27.80;;;15.48;;
33954;SDS011;20233;50.804;7.126;2022-11-20T05:07:44;26.42;;;14.82;;
33954;SDS011;20233;50.804;7.126;2022-11-20T05:10:10;27.50;;;13.45;;
33954;SDS011;20233;50.804;7.126;2022-11-20T05:12:35;27.65;;;14.85;;
33954;SDS011;20233;50.804;7.126;2022-11-20T05:15:01;29.23;;;14.30;;
33954;SDS011;20233;50.804;7.126;2022-11-20T05:17:26;27.75;;;14.77;;
33954;SDS011;20233;50.804;7.126;2022-11-20T05:19:52;23.95;;;13.55;;
33954;SDS011;20233;50.804;7.126;2022-11-20T05:22:17;28.75;;;15.13;;
33954;SDS011;20233;50.804;7.126;2022-11-20T05:24:43;26.77;;;14.27;;
33954;SDS011;20233;50.804;7.126;2022-11-20T05:27:08;22.38;;;12.77;;
33954;SDS011;20233;50.804;7.126;2022-11-20T05:29:34;24.42;;;13.63;;
33954;SDS011;20233;50.804;7.126;2022-11-20T05:31:59;26.25;;;15.43;;
33954;SDS011;20233;50.804;7.126;2022-11-20T05:34:25;26.85;;;14.40;;
33954;SDS011;20233;50.804;7.126;2022-11-20T05:36:50;26.15;;;15.23;;
33954;SDS011;20233;50.804;7.126;2022-11-20T05:39:16;28.42;;;13.90;;
33954;SDS011;20233;50.804;7.126;2022-11-20T05:41:41;24.27;;;13.82;;
33954;SDS011;20233;50.804;7.126;2022-11-20T05:44:09;23.95;;;13.93;;
33954;SDS011;20233;50.804;7.126;2022-11-20T05:46:35;25.70;;;13.70;;
33954;SDS011;20233;50.804;7.126;2022-11-20T05:49:01;24.10;;;13.23;;
33954;SDS011;20233;50.804;7.126;2022-11-20T05:51:27;27.50;;;13.98;;
33954;SDS011;20233;50.804;7.126;2022-11-20T05:53:53;30.48;;;15.63;;
33954;SDS011;20233;50.804;7.126;2022-11-20T05:56:21;23.17;;;13.15;;
33954;SDS011;20233;50.804;7.126;2022-11-20T05:58:47;27.23;;;14.38;;
33954;SDS011;20233;50.804;7.126;2022-11-20T06:03:42;25.42;;;14.52;;
33954;SDS011;20233;50.804;7.126;2022-11-20T06:06:11;27.67;;;14.20;;
33954;SDS011;20233;50.804;7.126;2022-11-20T06:08:37;23.50;;;13.70;;
33954;SDS011;20233;50.804;7.126;2022-11-20T06:11:06;25.88;;;13.35;;
33954;SDS011;20233;50.804;7.126;2022-11-20T06:13:34;25.25;;;14.13;;
33954;SDS011;20233;50.804;7.126;2022-11-20T06:16:00;23.92;;;13.23;;
33954;SDS011;20233;50.804;7.126;2022-11-20T06:18:26;24.95;;;13.77;;
33954;SDS011;20233;50.804;7.126;2022-11-20T06:23:32;25.67;;;14.15;;
33954;SDS011;20233;50.804;7.126;2022-11-20T06:26:06;25.25;;;14.23;;
33954;SDS011;20233;50.804;7.126;2022-11-20T06:28:33;26.40;;;13.95;;
33954;SDS011;20233;50.804;7.126;2022-11-20T06:30:58;27.40;;;13.63;;
33954;SDS011;20233;50.804;7.126;2022-11-20T06:33:24;24.90;;;14.35;;
33954;SDS011;20233;50.804;7.126;2022-11-20T06:35:50;24.50;;;12.90;;
33954;SDS011;20233;50.804;7.126;2022-11-20T06:38:16;24.35;;;13.38;;
33954;SDS011;20233;50.804;7.126;2022-11-20T06:40:41;23.50;;;12.80;;
33954;SDS011;20233;50.804;7.126;2022-11-20T06:43:08;25.67;;;13.88;;
33954;SDS011;20233;50.804;7.126;2022-11-20T06:45:34;22.08;;;12.82;;
33954;SDS011;20233;50.804;7.126;2022-11-20T06:48:00;23.70;;;13.40;;
33954;SDS011;20233;50.804;7.126;2022-11-20T06:50:26;23.67;;;12.48;;
33954;SDS011;20233;50.804;7.126;2022-11-20T06:52:51;24.25;;;13.40;;
33954;SDS011;20233;50.804;7.126;2022-11-20T06:55:17;24.45;;;13.65;;
33954;SDS011;20233;50.804;7.126;2022-11-20T06:57:42;24.00;;;13.68;;
33954;SDS011;20233;50.804;7.126;2022-11-20T07:00:08;24.80;;;14.35;;
33954;SDS011;20233;50.804;7.126;2022-11-20T07:02:34;23.95;;;13.55;;
33954;SDS011;20233;50.804;7.126;2022-11-20T07:05:00;24.33;;;13.60;;
33954;SDS011;20233;50.804;7.126;2022-11-20T07:07:25;24.92;;;13.27;;
33954;SDS011;20233;50.804;7.126;2022-11-20T07:09:51;25.80;;;15.25;;
33954;SDS011;20233;50.804;7.126;2022-11-20T07:12:16;23.77;;;14.13;;
33954;SDS011;20233;50.804;7.126;2022-11-20T07:14:42;24.70;;;14.18;;
33954;SDS011;20233;50.804;7.126;2022-11-20T07:17:07;26.13;;;13.63;;
33954;SDS011;20233;50.804;7.126;2022-11-20T07:19:33;25.45;;;12.88;;
33954;SDS011;20233;50.804;7.126;2022-11-20T07:21:58;24.95;;;13.75;;
33954;SDS011;20233;50.804;7.126;2022-11-20T07:24:24;25.38;;;14.07;;
33954;SDS011;20233;50.804;7.126;2022-11-20T07:26:49;26.58;;;14.55;;
33954;SDS011;20233;50.804;7.126;2022-11-20T07:29:15;24.42;;;13.07;;
33954;SDS011;20233;50.804;7.126;2022-11-20T07:31:41;26.73;;;15.38;;
33954;SDS011;20233;50.804;7.126;2022-11-20T07:34:08;25.33;;;13.82;;
33954;SDS011;20233;50.804;7.126;2022-11-20T07:36:33;25.83;;;14.63;;
33954;SDS011;20233;50.804;7.126;2022-11-20T07:38:59;25.00;;;14.10;;
33954;SDS011;20233;50.804;7.126;2022-11-20T07:41:24;24.95;;;14.38;;
33954;SDS011;20233;50.804;7.126;2022-11-20T07:43:50;27.08;;;14.55;;
33954;SDS011;20233;50.804;7.126;2022-11-20T07:46:16;26.25;;;14.27;;
33954;SDS011;20233;50.804;7.126;2022-11-20T07:48:41;27.38;;;14.82;;
33954;SDS011;20233;50.804;7.126;2022-11-20T07:51:07;25.15;;;14.60;;
33954;SDS011;20233;50.804;7.126;2022-11-20T07:53:32;27.13;;;15.00;;
33954;SDS011;20233;50.804;7.126;2022-11-20T07:56:01;24.67;;;14.52;;
33954;SDS011;20233;50.804;7.126;2022-11-20T07:58:28;23.95;;;13.20;;
33954;SDS011;20233;50.804;7.126;2022-11-20T08:00:54;25.73;;;14.50;;
33954;SDS011;20233;50.804;7.126;2022-11-20T08:03:20;24.95;;;14.73;;
33954;SDS011;20233;50.804;7.126;2022-11-20T08:05:46;26.98;;;15.07;;
33954;SDS011;20233;50.804;7.126;2022-11-20T08:08:11;26.83;;;15.07;;
33954;SDS011;20233;50.804;7.126;2022-11-20T08:10:37;25.70;;;14.23;;
33954;SDS011;20233;50.804;7.126;2022-11-20T08:13:02;25.27;;;15.00;;
33954;SDS011;20233;50.804;7.126;2022-11-20T08:15:47;29.92;;;14.90;;
33954;SDS011;20233;50.804;7.126;2022-11-20T08:18:15;25.17;;;13.75;;
33954;SDS011;20233;50.804;7.126;2022-11-20T08:20:42;25.55;;;14.73;;
33954;SDS011;20233;50.804;7.126;2022-11-20T08:23:08;28.05;;;13.90;;
33954;SDS011;20233;50.804;7.126;2022-11-20T08:25:35;26.00;;;14.45;;
33954;SDS011;20233;50.804;7.126;2022-11-20T08:28:02;28.63;;;15.68;;
33954;SDS011;20233;50.804;7.126;2022-11-20T08:30:30;27.48;;;14.35;;
33954;SDS011;20233;50.804;7.126;2022-11-20T08:33:04;26.92;;;15.18;;
33954;SDS011;20233;50.804;7.126;2022-11-20T08:35:37;28.75;;;14.68;;
33954;SDS011;20233;50.804;7.126;2022-11-20T08:38:03;26.80;;;14.68;;
33954;SDS011;20233;50.804;7.126;2022-11-20T08:40:30;27.67;;;15.05;;
33954;SDS011;20233;50.804;7.126;2022-11-20T08:42:56;29.08;;;15.10;;
33954;SDS011;20233;50.804;7.126;2022-11-20T08:45:22;28.52;;;15.00;;
33954;SDS011;20233;50.804;7.126;2022-11-20T08:47:48;30.15;;;15.00;;
33954;SDS011;20233;50.804;7.126;2022-11-20T08:50:14;28.20;;;15.65;;
33954;SDS011;20233;50.804;7.126;2022-11-20T08:52:40;28.45;;;15.23;;
33954;SDS011;20233;50.804;7.126;2022-11-20T08:55:06;30.65;;;17.02;;
33954;SDS011;20233;50.804;7.126;2022-11-20T08:57:33;27.60;;;15.75;;
33954;SDS011;20233;50.804;7.126;2022-11-20T09:00:03;27.05;;;16.40;;
33954;SDS011;20233;50.804;7.126;2022-11-20T09:02:31;25.48;;;14.93;;
33954;SDS011;20233;50.804;7.126;2022-11-20T09:04:57;29.15;;;15.52;;
33954;SDS011;20233;50.804;7.126;2022-11-20T09:07:23;28.30;;;15.40;;
33954;SDS011;20233;50.804;7.126;2022-11-20T09:09:48;26.67;;;15.48;;
33954;SDS011;20233;50.804;7.126;2022-11-20T09:12:14;27.40;;;15.32;;
33954;SDS011;20233;50.804;7.126;2022-11-20T09:14:39;30.80;;;15.40;;
33954;SDS011;20233;50.804;7.126;2022-11-20T09:17:05;26.30;;;14.00;;
33954;SDS011;20233;50.804;7.126;2022-11-20T09:19:32;30.98;;;15.32;;
33954;SDS011;20233;50.804;7.126;2022-11-20T09:21:58;27.35;;;14.93;;
33954;SDS011;20233;50.804;7.126;2022-11-20T09:24:25;30.08;;;16.25;;
33954;SDS011;20233;50.804;7.126;2022-11-20T09:26:51;29.20;;;16.85;;
33954;SDS011;20233;50.804;7.126;2022-11-20T09:29:16;30.05;;;16.58;;
33954;SDS011;20233;50.804;7.126;2022-11-20T09:31:42;32.35;;;16.85;;
33954;SDS011;20233;50.804;7.126;2022-11-20T09:34:07;33.38;;;18.45;;
33954;SDS011;20233;50.804;7.126;2022-11-20T09:36:33;30.15;;;16.70;;
33954;SDS011;20233;50.804;7.126;2022-11-20T09:38:58;31.38;;;16.92;;
33954;SDS011;20233;50.804;7.126;2022-11-20T09:41:30;34.78;;;19.58;;
33954;SDS011;20233;50.804;7.126;2022-11-20T09:44:24;31.50;;;16.58;;
33954;SDS011;20233;50.804;7.126;2022-11-20T09:53:02;29.67;;;16.90;;
33954;SDS011;20233;50.804;7.126;2022-11-20T09:55:36;33.55;;;18.25;;
33954;SDS011;20233;50.804;7.126;2022-11-20T09:58:04;32.28;;;17.73;;
33954;SDS011;20233;50.804;7.126;2022-11-20T10:00:32;34.95;;;18.35;;
33954;SDS011;20233;50.804;7.126;2022-11-20T10:03:06;34.25;;;18.45;;
33954;SDS011;20233;50.804;7.126;2022-11-20T10:05:41;33.10;;;17.73;;
33954;SDS011;20233;50.804;7.126;2022-11-20T10:08:23;31.85;;;17.42;;
33954;SDS011;20233;50.804;7.126;2022-11-20T10:13:40;34.53;;;17.67;;
33954;SDS011;20233;50.804;7.126;2022-11-20T10:22:13;35.00;;;17.17;;
33954;SDS011;20233;50.804;7.126;2022-11-20T10:30:50;31.35;;;16.63;;
33954;SDS011;20233;50.804;7.126;2022-11-20T10:33:34;33.15;;;18.23;;
33954;SDS011;20233;50.804;7.126;2022-11-20T10:36:16;32.70;;;16.77;;
33954;SDS011;20233;50.804;7.126;2022-11-20T10:38:53;33.05;;;17.70;;
33954;SDS011;20233;50.804;7.126;2022-11-20T10:41:25;31.20;;;17.27;;
33954;SDS011;20233;50.804;7.126;2022-11-20T10:46:44;31.65;;;17.00;;
33954;SDS011;20233;50.804;7.126;2022-11-20T10:49:17;29.20;;;16.92;;
33954;SDS011;20233;50.804;7.126;2022-11-20T10:51:48;28.40;;;15.77;;
33954;SDS011;20233;50.804;7.126;2022-11-20T10:56:56;27.80;;;15.75;;
33954;SDS011;20233;50.804;7.126;2022-11-20T10:59:48;31.60;;;16.65;;
33954;SDS011;20233;50.804;7.126;2022-11-20T11:04:49;26.65;;;15.75;;
33954;SDS011;20233;50.804;7.126;2022-11-20T11:09:48;30.10;;;16.85;;
33954;SDS011;20233;50.804;7.126;2022-11-20T11:12:16;29.45;;;15.85;;
33954;SDS011;20233;50.804;7.126;2022-11-20T11:14:47;31.73;;;17.52;;
33954;SDS011;20233;50.804;7.126;2022-11-20T11:17:19;32.60;;;17.98;;
33954;SDS011;20233;50.804;7.126;2022-11-20T11:19:58;34.15;;;16.65;;
33954;SDS011;20233;50.804;7.126;2022-11-20T11:22:24;28.95;;;16.58;;
33954;SDS011;20233;50.804;7.126;2022-11-20T11:24:53;31.25;;;16.30;;
33954;SDS011;20233;50.804;7.126;2022-11-20T11:27:19;31.02;;;16.90;;
33954;SDS011;20233;50.804;7.126;2022-11-20T11:29:45;28.83;;;16.77;;
33954;SDS011;20233;50.804;7.126;2022-11-20T11:32:20;28.58;;;15.98;;
33954;SDS011;20233;50.804;7.126;2022-11-20T11:35:03;30.60;;;16.35;;
33954;SDS011;20233;50.804;7.126;2022-11-20T11:37:35;29.38;;;15.27;;
33954;SDS011;20233;50.804;7.126;2022-11-20T11:40:03;32.78;;;16.95;;
33954;SDS011;20233;50.804;7.126;2022-11-20T11:42:30;30.90;;;16.65;;
33954;SDS011;20233;50.804;7.126;2022-11-20T11:44:56;31.67;;;17.85;;
33954;SDS011;20233;50.804;7.126;2022-11-20T11:47:32;31.15;;;17.00;;
33954;SDS011;20233;50.804;7.126;2022-11-20T11:52:39;31.92;;;16.45;;
33954;SDS011;20233;50.804;7.126;2022-11-20T11:56:08;28.80;;;17.08;;
33954;SDS011;20233;50.804;7.126;2022-11-20T11:58:33;29.48;;;16.38;;
33954;SDS011;20233;50.804;7.126;2022-11-20T12:07:42;30.15;;;16.75;;
33954;SDS011;20233;50.804;7.126;2022-11-20T12:09:56;29.50;;;16.05;;
33954;SDS011;20233;50.804;7.126;2022-11-20T12:12:24;31.33;;;16.20;;
33954;SDS011;20233;50.804;7.126;2022-11-20T12:14:56;31.90;;;17.30;;
33954;SDS011;20233;50.804;7.126;2022-11-20T12:17:23;30.98;;;16.90;;
33954;SDS011;20233;50.804;7.126;2022-11-20T12:19:49;31.48;;;16.90;;
33954;SDS011;20233;50.804;7.126;2022-11-20T12:24:52;31.70;;;18.95;;
33954;SDS011;20233;50.804;7.126;2022-11-20T12:30:17;31.38;;;17.70;;
33954;SDS011;20233;50.804;7.126;2022-11-20T12:47:24;28.23;;;16.38;;
33954;SDS011;20233;50.804;7.126;2022-11-20T12:50:18;32.95;;;15.68;;
33954;SDS011;20233;50.804;7.126;2022-11-20T12:53:08;27.02;;;16.13;;
33954;SDS011;20233;50.804;7.126;2022-11-20T13:01:12;33.38;;;17.65;;
33954;SDS011;20233;50.804;7.126;2022-11-20T13:07:02;28.05;;;16.63;;
33954;SDS011;20233;50.804;7.126;2022-11-20T13:09:32;29.33;;;16.30;;
33954;SDS011;20233;50.804;7.126;2022-11-20T13:12:04;32.17;;;16.98;;
33954;SDS011;20233;50.804;7.126;2022-11-20T13:18:08;29.45;;;16.75;;
33954;SDS011;20233;50.804;7.126;2022-11-20T13:20:21;32.00;;;17.77;;
33954;SDS011;20233;50.804;7.126;2022-11-20T13:22:47;29.90;;;15.93;;
33954;SDS011;20233;50.804;7.126;2022-11-20T13:25:23;27.55;;;16.77;;
33954;SDS011;20233;50.804;7.126;2022-11-20T13:27:50;28.40;;;16.35;;
33954;SDS011;20233;50.804;7.126;2022-11-20T13:30:17;30.00;;;16.08;;
33954;SDS011;20233;50.804;7.126;2022-11-20T13:32:55;25.92;;;16.67;;
33954;SDS011;20233;50.804;7.126;2022-11-20T13:35:34;30.02;;;16.13;;
33954;SDS011;20233;50.804;7.126;2022-11-20T13:40:35;28.25;;;15.60;;
33954;SDS011;20233;50.804;7.126;2022-11-20T13:43:18;30.05;;;16.00;;
33954;SDS011;20233;50.804;7.126;2022-11-20T13:45:55;28.63;;;15.63;;
33954;SDS011;20233;50.804;7.126;2022-11-20T13:48:21;29.20;;;14.57;;
33954;SDS011;20233;50.804;7.126;2022-11-20T13:51:03;28.15;;;15.55;;
33954;SDS011;20233;50.804;7.126;2022-11-20T13:56:17;30.13;;;17.13;;
33954;SDS011;20233;50.804;7.126;2022-11-20T14:01:34;29.55;;;15.50;;
33954;SDS011;20233;50.804;7.126;2022-11-20T14:04:01;28.17;;;15.40;;
33954;SDS011;20233;50.804;7.126;2022-11-20T14:06:41;28.90;;;15.63;;
33954;SDS011;20233;50.804;7.126;2022-11-20T14:11:57;29.75;;;16.08;;
33954;SDS011;20233;50.804;7.126;2022-11-20T14:14:27;28.05;;;15.40;;
33954;SDS011;20233;50.804;7.126;2022-11-20T14:20:04;28.67;;;15.73;;
33954;SDS011;20233;50.804;7.126;2022-11-20T14:22:39;29.65;;;15.02;;
33954;SDS011;20233;50.804;7.126;2022-11-20T14:27:40;29.33;;;16.48;;
33954;SDS011;20233;50.804;7.126;2022-11-20T14:30:17;29.38;;;16.05;;
33954;SDS011;20233;50.804;7.126;2022-11-20T14:32:45;31.27;;;17.27;;
33954;SDS011;20233;50.804;7.126;2022-11-20T14:36:15;30.65;;;16.23;;
33954;SDS011;20233;50.804;7.126;2022-11-20T14:38:14;28.15;;;16.85;;
33954;SDS011;20233;50.804;7.126;2022-11-20T14:40:43;28.20;;;16.13;;
33954;SDS011;20233;50.804;7.126;2022-11-20T14:43:26;24.80;;;15.55;;
33954;SDS011;20233;50.804;7.126;2022-11-20T14:46:00;27.52;;;15.95;;
33954;SDS011;20233;50.804;7.126;2022-11-20T14:48:31;28.70;;;15.43;;
33954;SDS011;20233;50.804;7.126;2022-11-20T14:51:02;27.50;;;15.48;;
33954;SDS011;20233;50.804;7.126;2022-11-20T14:53:27;27.48;;;15.82;;
33954;SDS011;20233;50.804;7.126;2022-11-20T14:55:57;26.13;;;15.57;;
33954;SDS011;20233;50.804;7.126;2022-11-20T14:58:28;28.13;;;16.60;;
33954;SDS011;20233;50.804;7.126;2022-11-20T15:01:00;27.38;;;16.08;;
33954;SDS011;20233;50.804;7.126;2022-11-20T15:03:31;26.67;;;16.83;;
33954;SDS011;20233;50.804;7.126;2022-11-20T15:05:58;29.65;;;14.77;;
33954;SDS011;20233;50.804;7.126;2022-11-20T15:08:25;26.58;;;15.68;;
33954;SDS011;20233;50.804;7.126;2022-11-20T15:10:51;28.38;;;16.52;;
33954;SDS011;20233;50.804;7.126;2022-11-20T15:13:24;28.83;;;16.05;;
33954;SDS011;20233;50.804;7.126;2022-11-20T15:16:02;28.52;;;15.13;;
33954;SDS011;20233;50.804;7.126;2022-11-20T15:18:33;26.13;;;15.00;;
33954;SDS011;20233;50.804;7.126;2022-11-20T15:21:04;28.67;;;15.57;;
33954;SDS011;20233;50.804;7.126;2022-11-20T15:23:35;28.05;;;15.23;;
33954;SDS011;20233;50.804;7.126;2022-11-20T15:26:00;35.13;;;19.17;;
33954;SDS011;20233;50.804;7.126;2022-11-20T15:28:36;30.55;;;18.23;;
33954;SDS011;20233;50.804;7.126;2022-11-20T15:31:09;29.75;;;18.15;;
33954;SDS011;20233;50.804;7.126;2022-11-20T15:33:37;29.40;;;16.27;;
33954;SDS011;20233;50.804;7.126;2022-11-20T15:36:03;20.75;;;12.50;;
33954;SDS011;20233;50.804;7.126;2022-11-20T15:38:29;20.30;;;12.30;;
33954;SDS011;20233;50.804;7.126;2022-11-20T15:40:55;19.30;;;11.38;;
33954;SDS011;20233;50.804;7.126;2022-11-20T15:43:21;18.70;;;11.80;;
33954;SDS011;20233;50.804;7.126;2022-11-20T15:45:56;24.92;;;13.25;;
33954;SDS011;20233;50.804;7.126;2022-11-20T15:48:30;21.02;;;12.02;;
33954;SDS011;20233;50.804;7.126;2022-11-20T15:53:35;19.67;;;11.57;;
33954;SDS011;20233;50.804;7.126;2022-11-20T15:56:01;16.90;;;11.05;;
33954;SDS011;20233;50.804;7.126;2022-11-20T15:58:27;16.67;;;10.77;;
33954;SDS011;20233;50.804;7.126;2022-11-20T16:00:53;20.83;;;13.02;;
33954;SDS011;20233;50.804;7.126;2022-11-20T16:03:18;21.40;;;12.20;;
33954;SDS011;20233;50.804;7.126;2022-11-20T16:05:44;19.10;;;10.80;;
33954;SDS011;20233;50.804;7.126;2022-11-20T16:08:10;17.98;;;10.40;;
33954;SDS011;20233;50.804;7.126;2022-11-20T16:10:36;17.85;;;12.02;;
33954;SDS011;20233;50.804;7.126;2022-11-20T16:13:02;21.70;;;14.40;;
33954;SDS011;20233;50.804;7.126;2022-11-20T16:15:50;16.17;;;10.70;;
33954;SDS011;20233;50.804;7.126;2022-11-20T16:18:18;21.83;;;15.35;;